Beaver Lake, New Jersey
Current Conditions -  °F | °C
As of 8:53 AM on Thursday 30 Oct 2014 (Local Time) from KFWN Reporting Station
Moderate Fog Moderate Fog  
Wind Chill: 39°   Ceiling: 200
Heat Index: 42°   Visibility: 0.25mi
Dew Point: 40°   Wind: 5mph
Humidity: 92%   Direction: 200°SSW
Pressure: 30.02"   Gusts: NA
Location:  41.1177°N, 74.5998°W
Report Text: KFWN 301253Z AUTO 20004KT 1/4SM FG VV002 06/04 A3002 RMK AO2 SLP165 T00560044
Loading
Personal Weather Stations






























Interactive Weather Map
Tropical Storm Tracking
New forecast layout! Learn more

10-Day Weather Forecast

Advertisements
Track Severe Weather on mobile